createdAt,value
2019-06-20T00:01:27.410Z,101144.09
2019-06-20T00:03:56.880Z,101144.72
2019-06-20T00:06:47.126Z,101148.69
2019-06-20T00:09:16.604Z,101148.82
2019-06-20T00:11:45.976Z,101146.53
2019-06-20T00:14:54.702Z,101145.42
2019-06-20T00:17:44.007Z,101143.01
2019-06-20T00:20:52.861Z,101141.59
2019-06-20T00:23:22.319Z,101136.23
2019-06-20T00:25:51.712Z,101141.08
2019-06-20T00:31:17.262Z,101139.86
2019-06-20T00:33:47.050Z,101134.45
2019-06-20T00:36:17.271Z,101133.37
2019-06-20T00:38:47.105Z,101132.37
2019-06-20T00:41:16.511Z,101132.52
2019-06-20T00:43:45.998Z,101127.80
2019-06-20T00:49:10.847Z,101127.81
2019-06-20T00:51:40.715Z,101131.91
2019-06-20T00:54:10.609Z,101133.13
2019-06-20T00:56:39.967Z,101132.98
2019-06-20T01:02:18.948Z,101134.20
2019-06-20T01:04:48.383Z,101136.50
2019-06-20T01:07:17.729Z,101134.81
2019-06-20T01:10:26.447Z,101136.63
2019-06-20T01:12:55.983Z,101139.29
2019-06-20T01:18:20.639Z,101139.77
2019-06-20T01:24:04.550Z,101142.77
2019-06-20T01:26:34.322Z,101143.51
2019-06-20T01:29:03.766Z,101137.34
2019-06-20T01:31:33.696Z,101138.08
2019-06-20T01:34:42.335Z,101141.59
2019-06-20T01:37:11.824Z,101150.27
2019-06-20T01:39:41.720Z,101150.38
2019-06-20T01:42:11.445Z,101148.94
2019-06-20T01:45:20.139Z,101144.59
2019-06-20T01:47:49.780Z,101149.28
2019-06-20T01:50:19.949Z,101159.42
2019-06-20T01:52:49.456Z,101164.99
2019-06-20T01:55:18.910Z,101165.70
2019-06-20T01:57:48.360Z,101157.39
2019-06-20T02:01:05.865Z,101158.58
2019-06-20T02:06:37.189Z,101163.30
2019-06-20T02:09:47.876Z,101159.45
2019-06-20T02:12:17.298Z,101157.28
2019-06-20T02:14:47.592Z,101166.09
2019-06-20T02:23:17.384Z,101167.65
2019-06-20T02:26:26.187Z,101172.37
2019-06-20T02:28:56.082Z,101166.80
2019-06-20T02:31:25.536Z,101171.05
2019-06-20T02:36:51.110Z,101162.22
2019-06-20T02:42:30.233Z,101171.30
2019-06-20T02:44:59.549Z,101172.76
2019-06-20T02:47:29.047Z,101175.29
2019-06-20T02:49:58.398Z,101171.80
2019-06-20T02:58:43.663Z,101159.80
2019-06-20T03:01:13.168Z,101165.21
2019-06-20T03:03:42.592Z,101164.36
2019-06-20T03:06:51.397Z,101167.88
2019-06-20T03:09:21.585Z,101168.84
2019-06-20T03:11:51.023Z,101164.11
2019-06-20T03:14:21.064Z,101159.75
2019-06-20T03:16:50.877Z,101162.64
2019-06-20T03:22:15.698Z,101166.23
2019-06-20T03:24:45.679Z,101158.23
2019-06-20T03:27:15.204Z,101157.11
2019-06-20T03:29:44.568Z,101159.62
2019-06-20T03:32:33.364Z,101158.38
2019-06-20T03:35:03.778Z,101156.77
2019-06-20T03:40:47.310Z,101145.95
2019-06-20T03:43:58.951Z,101148.22
2019-06-20T03:46:27.651Z,101142.84
2019-06-20T03:48:57.252Z,101137.52
2019-06-20T03:52:06.184Z,101130.38
2019-06-20T03:54:36.197Z,101134.59
2019-06-20T03:57:45.036Z,101137.21
2019-06-20T04:03:09.497Z,101143.20
2019-06-20T04:08:48.105Z,101149.48
2019-06-20T04:11:17.453Z,101146.61
2019-06-20T04:13:46.880Z,101141.70
2019-06-20T04:16:16.270Z,101140.52
2019-06-20T04:18:45.777Z,101143.16
2019-06-20T04:21:15.305Z,101144.19
2019-06-20T04:24:27.659Z,101139.36
2019-06-20T04:26:55.612Z,101136.66
2019-06-20T04:29:25.141Z,101144.04
2019-06-20T04:31:54.535Z,101144.25
2019-06-20T04:34:24.354Z,101148.93
2019-06-20T04:36:53.886Z,101156.48
2019-06-20T04:39:23.322Z,101147.05
2019-06-20T04:41:52.724Z,101151.39
2019-06-20T04:44:23.159Z,101150.33
2019-06-20T04:47:32.176Z,101151.60
2019-06-20T04:53:11.569Z,101141.52
2019-06-20T04:55:40.954Z,101143.62
2019-06-20T05:01:00.445Z,101142.80
2019-06-20T05:03:30.638Z,101144.33
2019-06-20T05:11:32.212Z,101134.43
2019-06-20T05:17:16.145Z,101133.45
2019-06-20T05:19:45.813Z,101132.94
2019-06-20T05:28:07.373Z,101127.14
2019-06-20T05:30:37.250Z,101130.42
2019-06-20T05:36:41.722Z,101123.76
2019-06-20T05:39:11.587Z,101122.36
2019-06-20T05:41:41.056Z,101125.74
2019-06-20T05:44:10.465Z,101126.10
2019-06-20T05:46:40.435Z,101130.36
2019-06-20T05:49:10.209Z,101132.05
2019-06-20T05:51:40.012Z,101130.78
2019-06-20T05:57:26.595Z,101131.08
2019-06-20T05:59:56.075Z,101128.50
2019-06-20T06:02:26.059Z,101122.95
2019-06-20T06:04:55.916Z,101117.12
2019-06-20T06:07:25.277Z,101123.53
2019-06-20T06:09:54.826Z,101118.48
2019-06-20T06:13:03.658Z,101113.53
2019-06-20T06:16:03.460Z,101113.55
2019-06-20T06:24:35.667Z,101119.27
2019-06-20T06:27:05.046Z,101119.30
2019-06-20T06:29:34.482Z,101121.44
2019-06-20T06:32:04.403Z,101121.27
2019-06-20T06:34:33.812Z,101130.30
2019-06-20T06:37:42.520Z,101120.86
2019-06-20T06:43:27.327Z,101116.24
2019-06-20T06:45:56.672Z,101120.25
2019-06-20T06:48:26.172Z,101106.07
2019-06-20T06:50:55.651Z,101110.41
2019-06-20T06:53:25.153Z,101109.62
2019-06-20T06:56:34.044Z,101107.72
2019-06-20T07:02:12.521Z,101101.41
2019-06-20T07:05:21.892Z,101098.64
2019-06-20T07:07:51.311Z,101102.56
2019-06-20T07:10:41.665Z,101107.91
2019-06-20T07:13:11.091Z,101107.70
2019-06-20T07:15:41.153Z,101102.21
2019-06-20T07:18:10.501Z,101105.19
2019-06-20T07:20:39.892Z,101101.31
2019-06-20T07:26:24.272Z,101086.98
2019-06-20T07:29:05.567Z,101090.00
2019-06-20T07:31:46.663Z,101087.87
2019-06-20T07:34:16.500Z,101083.52
2019-06-20T07:37:25.163Z,101080.43
2019-06-20T07:39:55.116Z,101082.44
2019-06-20T07:42:24.474Z,101078.52
2019-06-20T07:44:54.115Z,101074.02
2019-06-20T07:47:23.508Z,101074.24
2019-06-20T07:53:01.331Z,101072.51
2019-06-20T07:55:20.545Z,101069.56
2019-06-20T08:00:47.482Z,101076.10
2019-06-20T08:03:16.973Z,101079.41
2019-06-20T08:06:25.734Z,101073.66
2019-06-20T08:08:55.202Z,101051.67
2019-06-20T08:11:24.710Z,101079.02
2019-06-20T08:14:33.625Z,101085.91
2019-06-20T08:23:19.745Z,101091.97
2019-06-20T08:25:49.382Z,101094.06
2019-06-20T08:29:10.436Z,101090.41
2019-06-20T08:32:09.058Z,101096.55
2019-06-20T08:34:50.282Z,101097.04
2019-06-20T08:40:31.797Z,101103.84
2019-06-20T08:43:02.109Z,101106.88
2019-06-20T08:46:11.764Z,101106.83
2019-06-20T08:51:57.252Z,101111.31
2019-06-20T08:54:26.879Z,101109.89
2019-06-20T08:57:35.552Z,101107.66
2019-06-20T09:08:49.308Z,101116.21
2019-06-20T09:11:58.542Z,101112.87
2019-06-20T09:14:29.185Z,101114.34
2019-06-20T09:16:59.311Z,101113.41
2019-06-20T09:20:09.240Z,101110.88
2019-06-20T09:25:52.818Z,101112.71
2019-06-20T09:32:10.898Z,101099.41
2019-06-20T09:34:40.267Z,101107.28
2019-06-20T09:37:09.630Z,101101.91
2019-06-20T09:39:39.565Z,101093.61
2019-06-20T09:51:20.961Z,101087.19
2019-06-20T09:53:51.854Z,101083.50
2019-06-20T09:59:27.241Z,101070.70
2019-06-20T10:01:50.039Z,101067.69
2019-06-20T10:04:21.673Z,101066.31
2019-06-20T10:06:52.315Z,101069.09
2019-06-20T10:09:22.671Z,101071.20
2019-06-20T10:11:54.033Z,101069.41
2019-06-20T10:15:03.614Z,101078.84
2019-06-20T10:17:33.058Z,101074.86
2019-06-20T10:20:02.647Z,101069.48
2019-06-20T10:22:52.787Z,101071.94
2019-06-20T10:25:23.291Z,101071.05
2019-06-20T10:30:48.847Z,101061.59
2019-06-20T10:33:19.771Z,101051.64
2019-06-20T10:36:28.778Z,101052.45
2019-06-20T10:38:59.092Z,101057.08
2019-06-20T10:41:28.449Z,101055.59
2019-06-20T10:44:37.118Z,101042.59
2019-06-20T10:47:06.943Z,101037.77
2019-06-20T10:49:36.290Z,101028.89
2019-06-20T10:52:45.308Z,101025.92
2019-06-20T10:58:18.406Z,101025.08
2019-06-20T11:06:52.255Z,101027.59
2019-06-20T11:10:01.657Z,101021.87
2019-06-20T11:13:11.835Z,101019.09
2019-06-20T11:15:42.223Z,101020.63
2019-06-20T11:18:52.227Z,101027.02
2019-06-20T11:21:21.753Z,101032.40
2019-06-20T11:24:30.474Z,101032.86
2019-06-20T11:27:00.761Z,101029.95
2019-06-20T11:29:30.204Z,101028.80
2019-06-20T11:32:39.408Z,101035.88
2019-06-20T11:38:24.727Z,101034.50
2019-06-20T11:40:54.560Z,101034.72
2019-06-20T11:44:03.388Z,101037.61
2019-06-20T11:46:35.328Z,101034.23
2019-06-20T11:49:04.459Z,101022.48
2019-06-20T11:51:34.859Z,101026.66
2019-06-20T11:54:05.611Z,101023.98
2019-06-20T11:56:34.981Z,101028.56
2019-06-20T11:59:43.740Z,101024.91
2019-06-20T12:02:24.767Z,101021.39
2019-06-20T12:04:54.321Z,101027.62
2019-06-20T12:07:23.929Z,101020.95
2019-06-20T12:12:49.319Z,101013.85
2019-06-20T12:18:22.711Z,101011.23
2019-06-20T12:20:52.209Z,101006.20
2019-06-20T12:23:22.012Z,101002.45
2019-06-20T12:28:46.623Z,101004.76
2019-06-20T12:34:33.054Z,101010.55
2019-06-20T12:37:42.690Z,101001.83
2019-06-20T12:40:52.326Z,101004.44
2019-06-20T12:43:22.086Z,101008.34
2019-06-20T12:45:51.801Z,101004.12
2019-06-20T12:49:00.599Z,100997.39
2019-06-20T12:51:29.977Z,100997.03
2019-06-20T12:53:59.320Z,100991.64
2019-06-20T12:57:08.149Z,100991.90
2019-06-20T12:59:38.071Z,100994.44
2019-06-20T13:11:13.569Z,100983.52
2019-06-20T13:13:44.334Z,100979.16
2019-06-20T13:16:14.503Z,100973.99
2019-06-20T13:19:23.419Z,100971.03
2019-06-20T13:21:52.957Z,100968.59
2019-06-20T13:25:01.652Z,100964.77
2019-06-20T13:30:32.411Z,100968.63
2019-06-20T13:33:01.905Z,100963.30
2019-06-20T13:36:11.084Z,100960.86
2019-06-20T13:41:50.299Z,100939.41
2019-06-20T13:44:21.790Z,100946.11
2019-06-20T13:52:55.168Z,100944.28
2019-06-20T13:56:04.111Z,100940.09
2019-06-20T14:01:29.500Z,100926.92
2019-06-20T14:03:59.015Z,100929.98
2019-06-20T14:06:42.046Z,100932.38
2019-06-20T14:09:12.050Z,100920.26
2019-06-20T14:12:20.787Z,100922.92
2019-06-20T14:14:50.445Z,100915.45
2019-06-20T14:17:20.417Z,100917.92
2019-06-20T14:19:51.184Z,100906.29
2019-06-20T14:22:20.513Z,100909.58
2019-06-20T14:25:29.411Z,100911.08
2019-06-20T14:27:59.393Z,100914.36
2019-06-20T14:30:29.711Z,100910.23
2019-06-20T14:38:57.179Z,100907.70
2019-06-20T14:42:06.247Z,100906.23
2019-06-20T14:45:15.232Z,100905.19
2019-06-20T14:47:45.027Z,100898.30
2019-06-20T14:50:53.720Z,100897.08
2019-06-20T14:53:23.337Z,100897.08
2019-06-20T14:56:32.031Z,100894.09
2019-06-20T14:59:02.882Z,100881.13
2019-06-20T15:01:32.272Z,100876.73
2019-06-20T15:04:01.802Z,100869.06
2019-06-20T15:06:32.116Z,100866.50
2019-06-20T15:09:13.682Z,100859.32
2019-06-20T15:11:45.841Z,100851.82
2019-06-20T15:14:15.994Z,100855.62
2019-06-20T15:17:25.183Z,100844.60
2019-06-20T15:23:04.339Z,100835.62
2019-06-20T15:26:13.047Z,100832.56
2019-06-20T15:28:42.447Z,100826.86
2019-06-20T15:31:11.962Z,100829.13
2019-06-20T15:34:20.809Z,100825.14
2019-06-20T15:36:51.539Z,100821.47
2019-06-20T15:39:21.925Z,100817.38
2019-06-20T15:41:51.681Z,100807.52
2019-06-20T15:47:17.504Z,100794.72
2019-06-20T15:50:26.186Z,100798.98
2019-06-20T15:53:34.980Z,100796.53
2019-06-20T15:56:04.467Z,100787.55
2019-06-20T15:58:34.214Z,100780.09
2019-06-20T16:01:43.392Z,100779.67
2019-06-20T16:04:12.831Z,100782.25
2019-06-20T16:06:42.219Z,100770.95
2019-06-20T16:09:11.768Z,100779.70
2019-06-20T16:11:41.159Z,100777.50
2019-06-20T16:14:13.590Z,100776.64
2019-06-20T16:16:43.152Z,100775.12
2019-06-20T16:19:13.048Z,100768.91
2019-06-20T16:21:42.941Z,100770.78
2019-06-20T16:24:12.891Z,100765.83
2019-06-20T16:26:42.707Z,100765.44
2019-06-20T16:29:13.417Z,100762.87
2019-06-20T16:31:42.887Z,100755.64
2019-06-20T16:37:21.459Z,100745.14
2019-06-20T16:39:51.376Z,100750.41
2019-06-20T16:43:00.089Z,100751.22
2019-06-20T16:45:29.709Z,100755.12
2019-06-20T16:47:59.138Z,100757.89
2019-06-20T16:50:28.526Z,100760.20
2019-06-20T16:53:01.131Z,100757.43
2019-06-20T16:55:30.089Z,100750.11
2019-06-20T16:58:39.735Z,100756.44
2019-06-20T17:04:12.037Z,100742.64
2019-06-20T17:06:41.422Z,100737.97
2019-06-20T17:09:10.812Z,100736.13
2019-06-20T17:12:19.691Z,100730.88
2019-06-20T17:14:49.042Z,100736.72
2019-06-20T17:23:10.138Z,100732.36
2019-06-20T17:25:39.969Z,100734.41
2019-06-20T17:31:44.548Z,100727.91
2019-06-20T17:37:29.428Z,100723.16
2019-06-20T17:40:38.234Z,100706.95
2019-06-20T17:43:07.756Z,100709.75
2019-06-20T17:48:46.346Z,100698.73
2019-06-20T17:51:15.658Z,100697.85
2019-06-20T17:53:45.087Z,100692.86
2019-06-20T17:56:17.857Z,100691.81
2019-06-20T17:58:46.232Z,100695.61
2019-06-20T18:01:55.181Z,100690.12
2019-06-20T18:04:26.796Z,100686.47
2019-06-20T18:06:55.923Z,100684.53
2019-06-20T18:09:25.548Z,100683.44
2019-06-20T18:11:55.147Z,100674.36
2019-06-20T18:14:24.541Z,100687.20
2019-06-20T18:16:54.249Z,100673.52
2019-06-20T18:19:23.767Z,100685.73
2019-06-20T18:21:53.146Z,100687.59
2019-06-20T18:33:21.720Z,100684.87
2019-06-20T18:35:51.140Z,100683.41
2019-06-20T18:38:59.982Z,100678.58
2019-06-20T18:42:09.259Z,100683.06
2019-06-20T18:47:29.169Z,100675.02
2019-06-20T18:49:59.015Z,100678.59
2019-06-20T18:52:28.399Z,100677.34
2019-06-20T18:55:37.146Z,100677.63
2019-06-20T18:58:07.099Z,100677.36
2019-06-20T19:01:16.728Z,100670.92
2019-06-20T19:03:58.277Z,100668.25
2019-06-20T19:09:23.619Z,100649.83
2019-06-20T19:11:53.370Z,100639.12
2019-06-20T19:14:22.943Z,100624.04
2019-06-20T19:16:52.673Z,100617.92
2019-06-20T19:19:22.187Z,100612.28
2019-06-20T19:21:51.537Z,100611.70
2019-06-20T19:24:21.732Z,100610.87
2019-06-20T19:26:51.664Z,100611.00
2019-06-20T19:29:21.131Z,100612.20
2019-06-20T19:32:30.965Z,100607.01
2019-06-20T19:35:02.495Z,100601.68
2019-06-20T19:37:32.041Z,100609.05
2019-06-20T19:42:58.080Z,100591.52
2019-06-20T19:45:27.689Z,100598.83
2019-06-20T19:47:57.088Z,100603.86
2019-06-20T19:50:26.532Z,100606.87
2019-06-20T19:52:56.305Z,100602.25
2019-06-20T19:58:32.365Z,100599.45
2019-06-20T20:01:01.763Z,100599.16
2019-06-20T20:06:38.816Z,100591.46
2019-06-20T20:18:20.069Z,100579.03
2019-06-20T20:21:28.754Z,100584.14
2019-06-20T20:23:58.236Z,100590.31
2019-06-20T20:38:47.131Z,100586.98
2019-06-20T20:41:17.147Z,100583.92
2019-06-20T20:43:46.667Z,100567.77
2019-06-20T20:46:35.527Z,100560.49
2019-06-20T20:49:05.439Z,100571.94
2019-06-20T20:51:34.936Z,100576.20
2019-06-20T20:56:59.786Z,100571.31
2019-06-20T21:00:08.614Z,100555.53
2019-06-20T21:02:38.617Z,100559.52
2019-06-20T21:05:08.525Z,100550.06
2019-06-20T21:07:39.255Z,100546.78
2019-06-20T21:10:49.142Z,100542.78
2019-06-20T21:13:18.512Z,100531.16
2019-06-20T21:18:43.253Z,100520.69
2019-06-20T21:21:31.979Z,100519.80
2019-06-20T21:24:10.444Z,100522.60
2019-06-20T21:30:28.359Z,100503.52
2019-06-20T21:32:59.433Z,100505.70
2019-06-20T21:35:29.059Z,100494.20
2019-06-20T21:37:59.057Z,100494.16
2019-06-20T21:43:37.792Z,100478.14
2019-06-20T21:49:22.986Z,100475.00
2019-06-20T21:51:52.390Z,100462.81
2019-06-20T21:55:01.306Z,100459.45
2019-06-20T21:57:30.635Z,100455.13
2019-06-20T22:02:56.075Z,100453.63
2019-06-20T22:05:25.467Z,100457.98
2019-06-20T22:07:54.810Z,100458.91
2019-06-20T22:13:19.365Z,100450.92
2019-06-20T22:15:48.784Z,100443.64
2019-06-20T22:18:18.154Z,100441.17
2019-06-20T22:20:47.600Z,100440.89
2019-06-20T22:26:26.138Z,100429.80
2019-06-20T22:28:55.564Z,100434.28
2019-06-20T22:31:25.453Z,100423.48
2019-06-20T22:33:54.959Z,100414.17
2019-06-20T22:39:57.491Z,100398.80
2019-06-20T22:42:26.864Z,100388.84
2019-06-20T22:44:56.702Z,100389.97
2019-06-20T22:48:05.657Z,100381.45
2019-06-20T22:50:35.025Z,100394.41
2019-06-20T22:56:39.168Z,100406.05
2019-06-20T23:02:22.983Z,100428.40
2019-06-20T23:05:31.801Z,100420.55
2019-06-20T23:08:02.137Z,100410.53
2019-06-20T23:10:32.563Z,100402.16
2019-06-20T23:13:41.481Z,100383.90
2019-06-20T23:19:25.919Z,100387.41
2019-06-20T23:21:56.351Z,100384.84
2019-06-20T23:24:44.896Z,100386.04
2019-06-20T23:27:15.179Z,100380.98
2019-06-20T23:30:24.060Z,100377.48
2019-06-20T23:35:48.720Z,100366.22
2019-06-20T23:38:18.074Z,100358.58
2019-06-20T23:41:26.805Z,100361.77
2019-06-20T23:46:57.852Z,100366.33
2019-06-20T23:49:27.225Z,100387.98
2019-06-20T23:54:37.192Z,100385.11
2019-06-20T23:57:08.736Z,100375.17
2019-06-20T23:59:38.890Z,100366.39
